sensor_id;sensor_type;location;lat;lon;timestamp;P1;durP1;ratioP1;P2;durP2;ratioP2
26656;SDS011;14279;50.010;8.260;2023-03-05T00:04:54;17.37;;;8.50;;
26656;SDS011;14279;50.010;8.260;2023-03-05T00:10:56;12.07;;;8.90;;
26656;SDS011;14279;50.010;8.260;2023-03-05T00:13:55;19.33;;;8.50;;
26656;SDS011;14279;50.010;8.260;2023-03-05T00:19:39;14.93;;;8.07;;
26656;SDS011;14279;50.010;8.260;2023-03-05T00:28:43;12.00;;;8.13;;
26656;SDS011;14279;50.010;8.260;2023-03-05T00:31:54;19.70;;;8.00;;
26656;SDS011;14279;50.010;8.260;2023-03-05T00:35:05;15.97;;;8.63;;
26656;SDS011;14279;50.010;8.260;2023-03-05T00:44:15;13.33;;;7.67;;
26656;SDS011;14279;50.010;8.260;2023-03-05T00:47:21;16.10;;;7.20;;
26656;SDS011;14279;50.010;8.260;2023-03-05T00:53:19;11.20;;;6.87;;
26656;SDS011;14279;50.010;8.260;2023-03-05T00:59:02;25.50;;;9.87;;
26656;SDS011;14279;50.010;8.260;2023-03-05T01:01:43;21.83;;;7.23;;
26656;SDS011;14279;50.010;8.260;2023-03-05T01:04:34;19.40;;;7.60;;
26656;SDS011;14279;50.010;8.260;2023-03-05T01:07:25;20.60;;;8.80;;
26656;SDS011;14279;50.010;8.260;2023-03-05T01:11:02;23.73;;;9.00;;
26656;SDS011;14279;50.010;8.260;2023-03-05T01:13:28;18.70;;;9.00;;
26656;SDS011;14279;50.010;8.260;2023-03-05T01:16:46;19.90;;;9.23;;
26656;SDS011;14279;50.010;8.260;2023-03-05T01:22:44;16.53;;;9.60;;
26656;SDS011;14279;50.010;8.260;2023-03-05T01:25:43;28.63;;;8.50;;
26656;SDS011;14279;50.010;8.260;2023-03-05T01:34:16;21.10;;;9.13;;
26656;SDS011;14279;50.010;8.260;2023-03-05T01:37:12;27.63;;;9.00;;
26656;SDS011;14279;50.010;8.260;2023-03-05T01:39:57;24.83;;;9.80;;
26656;SDS011;14279;50.010;8.260;2023-03-05T01:42:32;19.00;;;8.77;;
26656;SDS011;14279;50.010;8.260;2023-03-05T01:45:20;22.03;;;8.80;;
26656;SDS011;14279;50.010;8.260;2023-03-05T01:53:43;25.63;;;9.90;;
26656;SDS011;14279;50.010;8.260;2023-03-05T01:56:23;19.90;;;9.77;;
26656;SDS011;14279;50.010;8.260;2023-03-05T02:02:17;21.17;;;10.47;;
26656;SDS011;14279;50.010;8.260;2023-03-05T02:05:10;21.23;;;9.20;;
26656;SDS011;14279;50.010;8.260;2023-03-05T02:08:04;21.17;;;9.17;;
26656;SDS011;14279;50.010;8.260;2023-03-05T02:10:47;21.93;;;9.40;;
26656;SDS011;14279;50.010;8.260;2023-03-05T02:13:25;21.80;;;9.00;;
26656;SDS011;14279;50.010;8.260;2023-03-05T02:16:07;15.23;;;8.20;;
26656;SDS011;14279;50.010;8.260;2023-03-05T02:18:50;15.80;;;7.60;;
26656;SDS011;14279;50.010;8.260;2023-03-05T02:21:35;15.50;;;7.47;;
26656;SDS011;14279;50.010;8.260;2023-03-05T02:24:37;16.60;;;7.90;;
26656;SDS011;14279;50.010;8.260;2023-03-05T02:30:44;14.17;;;8.13;;
26656;SDS011;14279;50.010;8.260;2023-03-05T02:33:18;16.87;;;9.37;;
26656;SDS011;14279;50.010;8.260;2023-03-05T02:36:02;18.53;;;8.90;;
26656;SDS011;14279;50.010;8.260;2023-03-05T02:38:41;17.83;;;8.13;;
26656;SDS011;14279;50.010;8.260;2023-03-05T02:41:19;16.97;;;8.70;;
26656;SDS011;14279;50.010;8.260;2023-03-05T02:44:12;16.30;;;8.43;;
26656;SDS011;14279;50.010;8.260;2023-03-05T02:46:41;16.40;;;8.67;;
26656;SDS011;14279;50.010;8.260;2023-03-05T02:49:27;15.37;;;8.30;;
26656;SDS011;14279;50.010;8.260;2023-03-05T02:52:02;15.30;;;8.60;;
26656;SDS011;14279;50.010;8.260;2023-03-05T02:57:41;19.93;;;9.90;;
26656;SDS011;14279;50.010;8.260;2023-03-05T03:00:17;19.03;;;10.00;;
26656;SDS011;14279;50.010;8.260;2023-03-05T03:02:45;30.83;;;10.10;;
26656;SDS011;14279;50.010;8.260;2023-03-05T03:05:26;14.37;;;9.03;;
26656;SDS011;14279;50.010;8.260;2023-03-05T03:07:56;24.70;;;11.03;;
26656;SDS011;14279;50.010;8.260;2023-03-05T03:10:22;19.90;;;9.97;;
26656;SDS011;14279;50.010;8.260;2023-03-05T03:12:50;20.13;;;10.90;;
26656;SDS011;14279;50.010;8.260;2023-03-05T03:15:22;21.40;;;11.33;;
26656;SDS011;14279;50.010;8.260;2023-03-05T03:20:53;26.43;;;11.90;;
26656;SDS011;14279;50.010;8.260;2023-03-05T03:23:37;25.40;;;12.67;;
26656;SDS011;14279;50.010;8.260;2023-03-05T03:26:30;23.03;;;11.97;;
26656;SDS011;14279;50.010;8.260;2023-03-05T03:28:56;17.50;;;11.50;;
26656;SDS011;14279;50.010;8.260;2023-03-05T03:31:27;22.03;;;11.80;;
26656;SDS011;14279;50.010;8.260;2023-03-05T03:34:12;23.87;;;12.57;;
26656;SDS011;14279;50.010;8.260;2023-03-05T03:36:49;26.37;;;13.13;;
26656;SDS011;14279;50.010;8.260;2023-03-05T03:40:03;20.97;;;13.30;;
26656;SDS011;14279;50.010;8.260;2023-03-05T03:42:35;24.63;;;13.70;;
26656;SDS011;14279;50.010;8.260;2023-03-05T03:45:00;29.87;;;13.23;;
26656;SDS011;14279;50.010;8.260;2023-03-05T03:47:40;30.07;;;14.30;;
26656;SDS011;14279;50.010;8.260;2023-03-05T03:52:55;27.33;;;15.00;;
26656;SDS011;14279;50.010;8.260;2023-03-05T03:55:35;29.60;;;14.47;;
26656;SDS011;14279;50.010;8.260;2023-03-05T03:58:30;27.33;;;14.23;;
26656;SDS011;14279;50.010;8.260;2023-03-05T04:01:05;27.10;;;15.53;;
26656;SDS011;14279;50.010;8.260;2023-03-05T04:04:11;24.30;;;14.63;;
26656;SDS011;14279;50.010;8.260;2023-03-05T04:06:49;27.70;;;15.30;;
26656;SDS011;14279;50.010;8.260;2023-03-05T04:09:30;30.17;;;15.90;;
26656;SDS011;14279;50.010;8.260;2023-03-05T04:12:13;27.20;;;14.20;;
26656;SDS011;14279;50.010;8.260;2023-03-05T04:14:47;31.43;;;16.00;;
26656;SDS011;14279;50.010;8.260;2023-03-05T04:17:31;35.90;;;16.30;;
26656;SDS011;14279;50.010;8.260;2023-03-05T04:20:01;35.60;;;16.20;;
26656;SDS011;14279;50.010;8.260;2023-03-05T04:23:00;35.43;;;16.60;;
26656;SDS011;14279;50.010;8.260;2023-03-05T04:25:32;31.80;;;16.43;;
26656;SDS011;14279;50.010;8.260;2023-03-05T04:28:10;27.50;;;15.20;;
26656;SDS011;14279;50.010;8.260;2023-03-05T04:30:47;26.40;;;14.30;;
26656;SDS011;14279;50.010;8.260;2023-03-05T04:36:59;29.53;;;15.03;;
26656;SDS011;14279;50.010;8.260;2023-03-05T04:39:58;26.97;;;15.10;;
26656;SDS011;14279;50.010;8.260;2023-03-05T04:45:42;33.23;;;14.97;;
26656;SDS011;14279;50.010;8.260;2023-03-05T04:48:27;23.40;;;13.70;;
26656;SDS011;14279;50.010;8.260;2023-03-05T04:56:56;18.50;;;9.67;;
26656;SDS011;14279;50.010;8.260;2023-03-05T05:02:57;23.80;;;9.20;;
26656;SDS011;14279;50.010;8.260;2023-03-05T05:05:53;12.73;;;6.93;;
26656;SDS011;14279;50.010;8.260;2023-03-05T05:08:58;15.90;;;6.17;;
26656;SDS011;14279;50.010;8.260;2023-03-05T05:11:24;9.70;;;4.90;;
26656;SDS011;14279;50.010;8.260;2023-03-05T05:13:49;11.30;;;4.20;;
26656;SDS011;14279;50.010;8.260;2023-03-05T05:19:21;8.17;;;4.03;;
26656;SDS011;14279;50.010;8.260;2023-03-05T05:21:54;7.63;;;4.20;;
26656;SDS011;14279;50.010;8.260;2023-03-05T05:24:35;8.87;;;4.20;;
26656;SDS011;14279;50.010;8.260;2023-03-05T05:27:26;12.37;;;4.17;;
26656;SDS011;14279;50.010;8.260;2023-03-05T05:30:06;6.63;;;3.07;;
26656;SDS011;14279;50.010;8.260;2023-03-05T05:32:38;16.00;;;4.40;;
26656;SDS011;14279;50.010;8.260;2023-03-05T05:35:10;14.07;;;3.40;;
26656;SDS011;14279;50.010;8.260;2023-03-05T05:37:36;15.87;;;6.10;;
26656;SDS011;14279;50.010;8.260;2023-03-05T05:40:10;11.10;;;5.30;;
26656;SDS011;14279;50.010;8.260;2023-03-05T05:43:03;6.67;;;4.23;;
26656;SDS011;14279;50.010;8.260;2023-03-05T05:45:29;12.13;;;5.50;;
26656;SDS011;14279;50.010;8.260;2023-03-05T05:48:08;11.37;;;5.73;;
26656;SDS011;14279;50.010;8.260;2023-03-05T05:51:07;9.90;;;5.70;;
26656;SDS011;14279;50.010;8.260;2023-03-05T05:53:43;12.20;;;4.20;;
26656;SDS011;14279;50.010;8.260;2023-03-05T05:56:19;9.90;;;5.17;;
26656;SDS011;14279;50.010;8.260;2023-03-05T05:59:03;8.90;;;4.70;;
26656;SDS011;14279;50.010;8.260;2023-03-05T06:14:34;17.23;;;8.60;;
26656;SDS011;14279;50.010;8.260;2023-03-05T06:23:30;18.83;;;8.03;;
26656;SDS011;14279;50.010;8.260;2023-03-05T06:29:33;18.93;;;9.30;;
26656;SDS011;14279;50.010;8.260;2023-03-05T06:35:47;14.83;;;8.80;;
26656;SDS011;14279;50.010;8.260;2023-03-05T06:45:19;14.47;;;8.53;;
26656;SDS011;14279;50.010;8.260;2023-03-05T06:58:58;20.10;;;9.53;;
26656;SDS011;14279;50.010;8.260;2023-03-05T07:01:45;15.90;;;8.27;;
26656;SDS011;14279;50.010;8.260;2023-03-05T07:07:39;18.10;;;8.50;;
26656;SDS011;14279;50.010;8.260;2023-03-05T07:16:58;14.17;;;7.73;;
26656;SDS011;14279;50.010;8.260;2023-03-05T07:27:04;14.97;;;8.40;;
26656;SDS011;14279;50.010;8.260;2023-03-05T07:29:41;13.80;;;7.80;;
26656;SDS011;14279;50.010;8.260;2023-03-05T07:32:25;16.43;;;7.73;;
26656;SDS011;14279;50.010;8.260;2023-03-05T07:35:04;13.00;;;7.10;;
26656;SDS011;14279;50.010;8.260;2023-03-05T07:37:45;18.53;;;7.50;;
26656;SDS011;14279;50.010;8.260;2023-03-05T07:43:39;14.63;;;7.00;;
26656;SDS011;14279;50.010;8.260;2023-03-05T07:46:24;12.60;;;6.93;;
26656;SDS011;14279;50.010;8.260;2023-03-05T07:49:08;18.83;;;6.77;;
26656;SDS011;14279;50.010;8.260;2023-03-05T07:51:57;12.57;;;6.40;;
26656;SDS011;14279;50.010;8.260;2023-03-05T07:54:36;13.03;;;6.67;;
26656;SDS011;14279;50.010;8.260;2023-03-05T07:57:24;13.07;;;6.83;;
26656;SDS011;14279;50.010;8.260;2023-03-05T08:00:01;11.00;;;6.40;;
26656;SDS011;14279;50.010;8.260;2023-03-05T08:02:36;9.77;;;5.57;;
26656;SDS011;14279;50.010;8.260;2023-03-05T08:05:43;11.67;;;5.50;;
26656;SDS011;14279;50.010;8.260;2023-03-05T08:08:48;13.13;;;5.97;;
26656;SDS011;14279;50.010;8.260;2023-03-05T08:14:15;10.00;;;5.73;;
26656;SDS011;14279;50.010;8.260;2023-03-05T08:23:46;13.23;;;6.10;;
26656;SDS011;14279;50.010;8.260;2023-03-05T08:26:13;12.00;;;5.43;;
26656;SDS011;14279;50.010;8.260;2023-03-05T08:28:39;12.03;;;5.70;;
26656;SDS011;14279;50.010;8.260;2023-03-05T08:31:12;10.57;;;6.07;;
26656;SDS011;14279;50.010;8.260;2023-03-05T08:33:38;12.17;;;5.50;;
26656;SDS011;14279;50.010;8.260;2023-03-05T08:36:04;11.53;;;5.60;;
26656;SDS011;14279;50.010;8.260;2023-03-05T08:38:30;16.03;;;6.07;;
26656;SDS011;14279;50.010;8.260;2023-03-05T08:40:55;16.33;;;5.63;;
26656;SDS011;14279;50.010;8.260;2023-03-05T08:43:20;10.87;;;6.23;;
26656;SDS011;14279;50.010;8.260;2023-03-05T08:45:45;13.77;;;6.30;;
26656;SDS011;14279;50.010;8.260;2023-03-05T08:48:11;21.63;;;6.80;;
26656;SDS011;14279;50.010;8.260;2023-03-05T08:50:37;12.63;;;5.93;;
26656;SDS011;14279;50.010;8.260;2023-03-05T08:53:02;14.23;;;7.03;;
26656;SDS011;14279;50.010;8.260;2023-03-05T08:55:27;15.43;;;7.13;;
26656;SDS011;14279;50.010;8.260;2023-03-05T08:57:53;17.03;;;6.47;;
26656;SDS011;14279;50.010;8.260;2023-03-05T09:00:18;10.33;;;6.03;;
26656;SDS011;14279;50.010;8.260;2023-03-05T09:02:43;9.00;;;4.83;;
26656;SDS011;14279;50.010;8.260;2023-03-05T09:05:09;15.97;;;5.40;;
26656;SDS011;14279;50.010;8.260;2023-03-05T09:07:34;9.10;;;5.53;;
26656;SDS011;14279;50.010;8.260;2023-03-05T09:10:01;10.03;;;5.87;;
26656;SDS011;14279;50.010;8.260;2023-03-05T09:12:28;14.40;;;5.60;;
26656;SDS011;14279;50.010;8.260;2023-03-05T09:14:53;12.77;;;5.67;;
26656;SDS011;14279;50.010;8.260;2023-03-05T09:17:19;11.40;;;4.93;;
26656;SDS011;14279;50.010;8.260;2023-03-05T09:19:44;11.23;;;5.70;;
26656;SDS011;14279;50.010;8.260;2023-03-05T09:22:09;9.97;;;5.23;;
26656;SDS011;14279;50.010;8.260;2023-03-05T09:24:35;8.67;;;5.07;;
26656;SDS011;14279;50.010;8.260;2023-03-05T09:27:00;11.50;;;5.23;;
26656;SDS011;14279;50.010;8.260;2023-03-05T09:29:25;13.20;;;5.87;;
26656;SDS011;14279;50.010;8.260;2023-03-05T09:31:51;11.67;;;5.90;;
26656;SDS011;14279;50.010;8.260;2023-03-05T09:34:17;14.03;;;6.60;;
26656;SDS011;14279;50.010;8.260;2023-03-05T09:36:42;12.03;;;6.33;;
26656;SDS011;14279;50.010;8.260;2023-03-05T09:39:08;7.67;;;5.80;;
26656;SDS011;14279;50.010;8.260;2023-03-05T09:44:39;13.23;;;6.50;;
26656;SDS011;14279;50.010;8.260;2023-03-05T09:47:18;9.77;;;5.37;;
26656;SDS011;14279;50.010;8.260;2023-03-05T09:52:42;12.87;;;6.77;;
26656;SDS011;14279;50.010;8.260;2023-03-05T10:01:09;12.27;;;6.23;;
26656;SDS011;14279;50.010;8.260;2023-03-05T10:03:54;12.27;;;6.87;;
26656;SDS011;14279;50.010;8.260;2023-03-05T10:06:23;14.00;;;6.70;;
26656;SDS011;14279;50.010;8.260;2023-03-05T10:08:57;10.40;;;6.90;;
26656;SDS011;14279;50.010;8.260;2023-03-05T10:14:13;12.63;;;5.43;;
26656;SDS011;14279;50.010;8.260;2023-03-05T10:22:25;11.93;;;6.70;;
26656;SDS011;14279;50.010;8.260;2023-03-05T10:45:00;12.23;;;4.77;;
26656;SDS011;14279;50.010;8.260;2023-03-05T10:47:43;8.10;;;4.70;;
26656;SDS011;14279;50.010;8.260;2023-03-05T10:50:26;5.80;;;4.33;;
26656;SDS011;14279;50.010;8.260;2023-03-05T10:53:22;9.93;;;5.07;;
26656;SDS011;14279;50.010;8.260;2023-03-05T10:55:54;9.10;;;5.10;;
26656;SDS011;14279;50.010;8.260;2023-03-05T10:58:21;8.73;;;5.27;;
26656;SDS011;14279;50.010;8.260;2023-03-05T11:01:04;9.03;;;4.77;;
26656;SDS011;14279;50.010;8.260;2023-03-05T11:03:47;5.40;;;4.10;;
26656;SDS011;14279;50.010;8.260;2023-03-05T11:06:32;6.70;;;4.10;;
26656;SDS011;14279;50.010;8.260;2023-03-05T11:14:25;8.03;;;4.93;;
26656;SDS011;14279;50.010;8.260;2023-03-05T11:16:59;5.97;;;4.27;;
26656;SDS011;14279;50.010;8.260;2023-03-05T11:19:27;7.50;;;4.40;;
26656;SDS011;14279;50.010;8.260;2023-03-05T11:24:34;5.10;;;3.50;;
26656;SDS011;14279;50.010;8.260;2023-03-05T11:40:39;6.60;;;3.47;;
26656;SDS011;14279;50.010;8.260;2023-03-05T12:44:08;4.97;;;3.43;;
26656;SDS011;14279;50.010;8.260;2023-03-05T12:49:32;6.60;;;3.80;;
26656;SDS011;14279;50.010;8.260;2023-03-05T12:52:02;7.73;;;3.30;;
26656;SDS011;14279;50.010;8.260;2023-03-05T12:54:39;8.27;;;3.93;;
26656;SDS011;14279;50.010;8.260;2023-03-05T12:57:19;5.83;;;4.00;;
26656;SDS011;14279;50.010;8.260;2023-03-05T12:59:49;6.00;;;4.53;;
26656;SDS011;14279;50.010;8.260;2023-03-05T13:02:30;5.00;;;4.07;;
26656;SDS011;14279;50.010;8.260;2023-03-05T13:05:02;7.67;;;4.47;;
26656;SDS011;14279;50.010;8.260;2023-03-05T13:07:32;8.67;;;4.80;;
26656;SDS011;14279;50.010;8.260;2023-03-05T13:09:57;7.23;;;4.43;;
26656;SDS011;14279;50.010;8.260;2023-03-05T13:12:24;8.30;;;4.90;;
26656;SDS011;14279;50.010;8.260;2023-03-05T13:14:58;5.90;;;4.10;;
26656;SDS011;14279;50.010;8.260;2023-03-05T13:20:03;7.50;;;4.57;;
26656;SDS011;14279;50.010;8.260;2023-03-05T13:23:01;10.67;;;4.17;;
26656;SDS011;14279;50.010;8.260;2023-03-05T13:25:27;11.33;;;5.30;;
26656;SDS011;14279;50.010;8.260;2023-03-05T13:28:00;8.77;;;4.67;;
26656;SDS011;14279;50.010;8.260;2023-03-05T13:30:27;9.50;;;4.40;;
26656;SDS011;14279;50.010;8.260;2023-03-05T13:33:02;7.70;;;4.97;;
26656;SDS011;14279;50.010;8.260;2023-03-05T13:35:32;10.30;;;4.50;;
26656;SDS011;14279;50.010;8.260;2023-03-05T13:37:58;7.73;;;4.63;;
26656;SDS011;14279;50.010;8.260;2023-03-05T13:40:24;6.10;;;3.70;;
26656;SDS011;14279;50.010;8.260;2023-03-05T13:42:52;12.90;;;3.90;;
26656;SDS011;14279;50.010;8.260;2023-03-05T13:45:23;7.60;;;4.40;;
26656;SDS011;14279;50.010;8.260;2023-03-05T13:47:53;5.50;;;3.70;;
26656;SDS011;14279;50.010;8.260;2023-03-05T13:50:24;9.27;;;4.30;;
26656;SDS011;14279;50.010;8.260;2023-03-05T13:52:54;8.87;;;4.57;;
26656;SDS011;14279;50.010;8.260;2023-03-05T13:55:21;7.43;;;3.73;;
26656;SDS011;14279;50.010;8.260;2023-03-05T13:57:50;6.30;;;4.20;;
26656;SDS011;14279;50.010;8.260;2023-03-05T14:00:27;5.57;;;4.30;;
26656;SDS011;14279;50.010;8.260;2023-03-05T14:02:56;7.50;;;3.77;;
26656;SDS011;14279;50.010;8.260;2023-03-05T14:05:26;7.27;;;4.93;;
26656;SDS011;14279;50.010;8.260;2023-03-05T14:07:54;8.43;;;4.20;;
26656;SDS011;14279;50.010;8.260;2023-03-05T14:13:10;5.60;;;4.10;;
26656;SDS011;14279;50.010;8.260;2023-03-05T14:15:38;5.53;;;3.43;;
26656;SDS011;14279;50.010;8.260;2023-03-05T14:20:35;7.90;;;4.20;;
26656;SDS011;14279;50.010;8.260;2023-03-05T14:23:23;5.17;;;3.70;;
26656;SDS011;14279;50.010;8.260;2023-03-05T14:28:49;5.50;;;3.80;;
26656;SDS011;14279;50.010;8.260;2023-03-05T14:31:17;8.67;;;4.00;;
26656;SDS011;14279;50.010;8.260;2023-03-05T14:33:42;6.27;;;3.23;;
26656;SDS011;14279;50.010;8.260;2023-03-05T14:36:08;5.63;;;3.90;;
26656;SDS011;14279;50.010;8.260;2023-03-05T14:38:36;8.63;;;3.93;;
26656;SDS011;14279;50.010;8.260;2023-03-05T14:43:44;5.00;;;3.80;;
26656;SDS011;14279;50.010;8.260;2023-03-05T14:46:10;5.60;;;3.40;;
26656;SDS011;14279;50.010;8.260;2023-03-05T14:48:36;4.80;;;2.90;;
26656;SDS011;14279;50.010;8.260;2023-03-05T14:51:01;5.00;;;3.80;;
26656;SDS011;14279;50.010;8.260;2023-03-05T14:53:27;5.27;;;3.67;;
26656;SDS011;14279;50.010;8.260;2023-03-05T14:55:58;7.17;;;3.40;;
26656;SDS011;14279;50.010;8.260;2023-03-05T14:58:24;5.70;;;3.60;;
26656;SDS011;14279;50.010;8.260;2023-03-05T15:00:52;7.00;;;4.47;;
26656;SDS011;14279;50.010;8.260;2023-03-05T15:03:18;5.97;;;3.07;;
26656;SDS011;14279;50.010;8.260;2023-03-05T15:05:47;4.83;;;3.47;;
26656;SDS011;14279;50.010;8.260;2023-03-05T15:08:16;5.33;;;4.10;;
26656;SDS011;14279;50.010;8.260;2023-03-05T15:10:44;8.37;;;3.70;;
26656;SDS011;14279;50.010;8.260;2023-03-05T15:13:09;5.93;;;4.03;;
26656;SDS011;14279;50.010;8.260;2023-03-05T15:15:37;7.20;;;4.40;;
26656;SDS011;14279;50.010;8.260;2023-03-05T15:18:03;5.40;;;3.80;;
26656;SDS011;14279;50.010;8.260;2023-03-05T15:20:29;10.33;;;4.80;;
26656;SDS011;14279;50.010;8.260;2023-03-05T15:22:54;7.13;;;5.00;;
26656;SDS011;14279;50.010;8.260;2023-03-05T15:25:21;6.60;;;4.30;;
26656;SDS011;14279;50.010;8.260;2023-03-05T15:27:47;6.37;;;4.10;;
26656;SDS011;14279;50.010;8.260;2023-03-05T15:30:25;4.70;;;3.73;;
26656;SDS011;14279;50.010;8.260;2023-03-05T15:32:55;6.80;;;4.23;;
26656;SDS011;14279;50.010;8.260;2023-03-05T15:35:23;9.17;;;4.63;;
26656;SDS011;14279;50.010;8.260;2023-03-05T15:37:49;5.80;;;4.40;;
26656;SDS011;14279;50.010;8.260;2023-03-05T15:40:24;6.50;;;4.63;;
26656;SDS011;14279;50.010;8.260;2023-03-05T15:43:16;6.93;;;4.07;;
26656;SDS011;14279;50.010;8.260;2023-03-05T15:45:44;7.80;;;4.50;;
26656;SDS011;14279;50.010;8.260;2023-03-05T15:48:33;10.17;;;4.30;;
26656;SDS011;14279;50.010;8.260;2023-03-05T17:06:30;11.00;;;5.27;;
26656;SDS011;14279;50.010;8.260;2023-03-05T17:08:58;8.93;;;5.40;;
26656;SDS011;14279;50.010;8.260;2023-03-05T17:28:27;10.03;;;5.53;;
26656;SDS011;14279;50.010;8.260;2023-03-05T17:31:56;5.20;;;4.40;;
26656;SDS011;14279;50.010;8.260;2023-03-05T17:58:18;6.70;;;5.03;;
26656;SDS011;14279;50.010;8.260;2023-03-05T18:01:04;7.03;;;5.00;;
26656;SDS011;14279;50.010;8.260;2023-03-05T18:03:52;7.50;;;5.07;;
26656;SDS011;14279;50.010;8.260;2023-03-05T18:06:18;7.83;;;5.00;;
26656;SDS011;14279;50.010;8.260;2023-03-05T18:08:43;9.33;;;5.00;;
26656;SDS011;14279;50.010;8.260;2023-03-05T18:11:09;11.40;;;5.30;;
26656;SDS011;14279;50.010;8.260;2023-03-05T18:13:34;7.93;;;4.70;;
26656;SDS011;14279;50.010;8.260;2023-03-05T18:15:59;6.33;;;4.60;;
26656;SDS011;14279;50.010;8.260;2023-03-05T18:18:24;12.30;;;6.07;;
26656;SDS011;14279;50.010;8.260;2023-03-05T18:20:50;8.27;;;5.63;;
26656;SDS011;14279;50.010;8.260;2023-03-05T18:23:16;5.63;;;4.43;;
26656;SDS011;14279;50.010;8.260;2023-03-05T18:25:41;4.67;;;3.87;;
26656;SDS011;14279;50.010;8.260;2023-03-05T18:28:09;8.23;;;4.60;;
26656;SDS011;14279;50.010;8.260;2023-03-05T18:30:36;6.47;;;3.90;;
26656;SDS011;14279;50.010;8.260;2023-03-05T18:33:02;5.33;;;3.60;;
26656;SDS011;14279;50.010;8.260;2023-03-05T18:35:28;5.87;;;4.20;;
26656;SDS011;14279;50.010;8.260;2023-03-05T18:37:53;5.87;;;3.20;;
26656;SDS011;14279;50.010;8.260;2023-03-05T18:40:23;4.10;;;3.70;;
26656;SDS011;14279;50.010;8.260;2023-03-05T18:42:50;3.87;;;3.47;;
26656;SDS011;14279;50.010;8.260;2023-03-05T18:45:16;9.83;;;3.47;;
26656;SDS011;14279;50.010;8.260;2023-03-05T18:47:43;4.83;;;3.10;;
26656;SDS011;14279;50.010;8.260;2023-03-05T18:50:11;4.80;;;3.27;;
26656;SDS011;14279;50.010;8.260;2023-03-05T18:52:39;5.43;;;3.70;;
26656;SDS011;14279;50.010;8.260;2023-03-05T18:55:06;6.20;;;3.93;;
26656;SDS011;14279;50.010;8.260;2023-03-05T18:57:38;6.50;;;3.63;;
26656;SDS011;14279;50.010;8.260;2023-03-05T19:00:05;8.97;;;4.47;;
26656;SDS011;14279;50.010;8.260;2023-03-05T19:02:31;6.27;;;4.33;;
26656;SDS011;14279;50.010;8.260;2023-03-05T19:04:58;7.27;;;4.27;;
26656;SDS011;14279;50.010;8.260;2023-03-05T19:07:24;6.90;;;3.90;;
26656;SDS011;14279;50.010;8.260;2023-03-05T19:09:50;6.40;;;3.80;;
26656;SDS011;14279;50.010;8.260;2023-03-05T19:12:27;13.33;;;5.23;;
26656;SDS011;14279;50.010;8.260;2023-03-05T19:14:56;7.43;;;4.57;;
26656;SDS011;14279;50.010;8.260;2023-03-05T19:17:25;7.70;;;4.40;;
26656;SDS011;14279;50.010;8.260;2023-03-05T19:19:53;5.80;;;3.73;;
26656;SDS011;14279;50.010;8.260;2023-03-05T19:22:23;9.07;;;4.60;;
26656;SDS011;14279;50.010;8.260;2023-03-05T19:24:53;7.10;;;4.10;;
26656;SDS011;14279;50.010;8.260;2023-03-05T19:27:22;7.83;;;4.10;;
26656;SDS011;14279;50.010;8.260;2023-03-05T19:29:47;6.10;;;4.40;;
26656;SDS011;14279;50.010;8.260;2023-03-05T19:32:13;4.80;;;3.97;;
26656;SDS011;14279;50.010;8.260;2023-03-05T19:34:45;7.33;;;4.53;;
26656;SDS011;14279;50.010;8.260;2023-03-05T19:37:14;11.80;;;4.83;;
26656;SDS011;14279;50.010;8.260;2023-03-05T19:40:00;11.07;;;5.50;;
26656;SDS011;14279;50.010;8.260;2023-03-05T19:42:25;7.17;;;4.30;;
26656;SDS011;14279;50.010;8.260;2023-03-05T19:44:50;8.97;;;4.60;;
26656;SDS011;14279;50.010;8.260;2023-03-05T19:47:15;4.63;;;3.40;;
26656;SDS011;14279;50.010;8.260;2023-03-05T19:49:41;5.80;;;4.20;;
26656;SDS011;14279;50.010;8.260;2023-03-05T19:52:06;5.30;;;3.63;;
26656;SDS011;14279;50.010;8.260;2023-03-05T19:54:32;6.50;;;4.50;;
26656;SDS011;14279;50.010;8.260;2023-03-05T19:56:57;7.43;;;4.07;;
26656;SDS011;14279;50.010;8.260;2023-03-05T19:59:23;4.93;;;4.00;;
26656;SDS011;14279;50.010;8.260;2023-03-05T20:01:49;6.90;;;4.37;;
26656;SDS011;14279;50.010;8.260;2023-03-05T20:04:19;5.70;;;4.70;;
26656;SDS011;14279;50.010;8.260;2023-03-05T20:06:49;9.33;;;4.97;;
26656;SDS011;14279;50.010;8.260;2023-03-05T20:09:14;6.63;;;4.40;;
26656;SDS011;14279;50.010;8.260;2023-03-05T20:11:40;6.90;;;4.80;;
26656;SDS011;14279;50.010;8.260;2023-03-05T20:14:06;15.30;;;4.90;;
26656;SDS011;14279;50.010;8.260;2023-03-05T20:16:33;7.57;;;4.30;;
26656;SDS011;14279;50.010;8.260;2023-03-05T20:19:00;7.03;;;4.43;;
26656;SDS011;14279;50.010;8.260;2023-03-05T20:21:31;7.53;;;4.97;;
26656;SDS011;14279;50.010;8.260;2023-03-05T20:24:03;10.40;;;4.83;;
26656;SDS011;14279;50.010;8.260;2023-03-05T20:26:32;6.40;;;5.17;;
26656;SDS011;14279;50.010;8.260;2023-03-05T20:28:59;7.13;;;5.00;;
26656;SDS011;14279;50.010;8.260;2023-03-05T20:31:29;7.23;;;4.77;;
26656;SDS011;14279;50.010;8.260;2023-03-05T20:33:55;7.53;;;4.30;;
26656;SDS011;14279;50.010;8.260;2023-03-05T20:36:29;9.13;;;4.90;;
26656;SDS011;14279;50.010;8.260;2023-03-05T20:39:03;8.10;;;4.43;;
26656;SDS011;14279;50.010;8.260;2023-03-05T20:41:30;6.47;;;4.20;;
26656;SDS011;14279;50.010;8.260;2023-03-05T20:43:55;8.93;;;5.17;;
26656;SDS011;14279;50.010;8.260;2023-03-05T20:46:22;6.03;;;4.60;;
26656;SDS011;14279;50.010;8.260;2023-03-05T20:48:50;6.10;;;4.10;;
26656;SDS011;14279;50.010;8.260;2023-03-05T20:53:49;6.47;;;3.77;;
26656;SDS011;14279;50.010;8.260;2023-03-05T20:56:15;6.50;;;4.60;;
26656;SDS011;14279;50.010;8.260;2023-03-05T21:01:41;6.97;;;4.00;;
26656;SDS011;14279;50.010;8.260;2023-03-05T21:04:12;7.53;;;4.70;;
26656;SDS011;14279;50.010;8.260;2023-03-05T21:06:50;8.30;;;4.17;;
26656;SDS011;14279;50.010;8.260;2023-03-05T21:09:19;5.43;;;4.50;;
26656;SDS011;14279;50.010;8.260;2023-03-05T21:11:45;6.53;;;4.60;;
26656;SDS011;14279;50.010;8.260;2023-03-05T21:14:10;5.07;;;4.30;;
26656;SDS011;14279;50.010;8.260;2023-03-05T21:16:35;9.50;;;4.50;;
26656;SDS011;14279;50.010;8.260;2023-03-05T21:19:04;6.40;;;4.50;;
26656;SDS011;14279;50.010;8.260;2023-03-05T21:24:49;6.80;;;4.20;;
26656;SDS011;14279;50.010;8.260;2023-03-05T21:27:36;8.20;;;4.17;;
26656;SDS011;14279;50.010;8.260;2023-03-05T21:30:05;6.30;;;5.00;;
26656;SDS011;14279;50.010;8.260;2023-03-05T21:32:31;4.57;;;4.10;;
26656;SDS011;14279;50.010;8.260;2023-03-05T21:34:56;3.63;;;3.33;;
26656;SDS011;14279;50.010;8.260;2023-03-05T21:37:42;4.57;;;3.83;;
26656;SDS011;14279;50.010;8.260;2023-03-05T21:40:13;5.17;;;4.47;;
26656;SDS011;14279;50.010;8.260;2023-03-05T21:46:12;4.03;;;3.63;;
26656;SDS011;14279;50.010;8.260;2023-03-05T21:48:46;4.83;;;3.67;;
26656;SDS011;14279;50.010;8.260;2023-03-05T21:51:19;5.33;;;3.70;;
26656;SDS011;14279;50.010;8.260;2023-03-05T21:53:50;6.43;;;4.07;;
26656;SDS011;14279;50.010;8.260;2023-03-05T21:56:17;7.50;;;4.03;;
26656;SDS011;14279;50.010;8.260;2023-03-05T21:58:48;6.80;;;3.80;;
26656;SDS011;14279;50.010;8.260;2023-03-05T22:01:14;5.40;;;3.53;;
26656;SDS011;14279;50.010;8.260;2023-03-05T22:03:47;7.20;;;4.43;;
26656;SDS011;14279;50.010;8.260;2023-03-05T22:09:54;4.73;;;3.87;;
26656;SDS011;14279;50.010;8.260;2023-03-05T22:19:24;6.10;;;4.00;;
26656;SDS011;14279;50.010;8.260;2023-03-05T22:21:49;6.20;;;4.60;;
26656;SDS011;14279;50.010;8.260;2023-03-05T22:24:14;6.30;;;4.00;;
26656;SDS011;14279;50.010;8.260;2023-03-05T22:26:40;6.33;;;4.17;;
26656;SDS011;14279;50.010;8.260;2023-03-05T22:29:06;6.53;;;4.00;;
26656;SDS011;14279;50.010;8.260;2023-03-05T22:32:01;5.90;;;3.80;;
26656;SDS011;14279;50.010;8.260;2023-03-05T22:34:26;4.40;;;4.00;;